Eastover Air Ranch Airport

6NC3 · 北卡罗来纳州, 美国

罗盘
风向 的 风向 200° Eastover Air Ranch Airport 4/22
风: 5 kt, 2 beaufort

5 kt

2 kt
改变
0 ft 1.000 2.000 3.000 4.000 5.000
Cloud Cloud Cloud Cloud Cloud Cloud Cloud Cloud
OVC 300
METAR KFAY 200953Z 20005KT 7SM OVC003 22/22 A3008 RMK AO2 SLP180 T02220217

METAR Eastover Air Ranch Airport - 6NC3

Eastover Air Ranch Airport是,美国中的小机场。 该机场位于纬度35,08639和经度-78,77222。 该机场有一条跑道: 4/22. 这个机场没有ICAO代码,我们使用US-8180作为参考。 该机场的本地机场标识(FAA LID)为6NC3。 机场在Washington FIR中。

该航空气象观测是针对Fayetteville Regional/Grannis Field在2024年7月20日 05:53, 当地时间进行的。

机场观察

风向为200°,速度为5 kt。

可见度为7 mi。

有乌云密布在300 ft的高度。 破损或更高的上限为300 ft。

温度和风寒是22 °C。 露点为22 °C,相对湿度为100%。 海平面上的气压为30,08 inHg (QNH)。

白天

今天,太阳从06:16升起,在20:26降落。 这适用于Eastover Air Ranch Airport,世界夏令时可能有所不同。 当地时间与世界标准时间之间的时差为-4 小时。 夏令时目前正在进行中。

公司介绍

我们没有关于这个机场的公司信息。

体会

到Vliegles.nl去找飞行课程,跳伞和其他飞行体验。 浏览页面,了解Eastover Air Ranch Airport附近所有可用的活动。 你也可以使用搜索功能来寻找你所在地附近的特定飞行课程、跳伞或其他飞行体验。

跑道

Id 标题 侧风 逆风 侧风 %
4/22 040°-220° 2 kt 5 kt 34 %

逆风成分最大的方向会被突出显示,并用于横风计算。 这并不一定意味着这个方向在使用。

乌云

300 ft OVC 乌云密布

温度 & 天气

温度 22,2 °C
露点 21,7 °C
相对湿度 100%
Kp-index 1 (0-9)

评论

AO2自动气象站,可确定降水类型
SLP180海平面压力为30,06 inHg (30,06 inHg)
T02220217温度为22,2 °C (72,0 °F),露点为21,7 °C (71,1 °F)

白天

日出
06:16
中午
13:21
日落
20:27 (14:02)

小工具

你想在你的网站上有一个关于Eastover Air Ranch Airport的当前航空天气(METAR)的小部件吗?

显示HTML代码
报告变更